createdAt,value
2019-04-30T00:00:18.293Z,6.50
2019-04-30T00:02:51.531Z,6.10
2019-04-30T00:05:20.075Z,8.57
2019-04-30T00:07:50.884Z,5.37
2019-04-30T00:10:18.825Z,6.80
2019-04-30T00:12:47.336Z,7.47
2019-04-30T00:15:19.463Z,6.70
2019-04-30T00:17:48.836Z,8.40
2019-04-30T00:20:17.741Z,6.83
2019-04-30T00:22:50.229Z,9.33
2019-04-30T00:25:19.727Z,5.50
2019-04-30T00:27:48.164Z,8.47
2019-04-30T00:30:16.884Z,9.13
2019-04-30T00:32:47.233Z,9.40
2019-04-30T00:35:19.611Z,6.53
2019-04-30T00:37:51.681Z,5.00
2019-04-30T00:40:16.364Z,10.57
2019-04-30T00:42:45.754Z,14.90
2019-04-30T00:45:15.464Z,5.93
2019-04-30T00:47:47.836Z,5.80
2019-04-30T00:50:14.966Z,13.70
2019-04-30T00:52:43.599Z,9.33
2019-04-30T00:55:12.068Z,8.60
2019-04-30T00:57:43.847Z,12.50
2019-04-30T01:00:12.520Z,13.90
2019-04-30T01:02:42.712Z,15.73
2019-04-30T01:05:12.903Z,11.13
2019-04-30T01:07:48.690Z,6.27
2019-04-30T01:10:15.055Z,7.07
2019-04-30T01:12:47.353Z,7.73
2019-04-30T01:15:14.583Z,5.70
2019-04-30T01:17:45.431Z,23.73
2019-04-30T01:20:14.101Z,6.30
2019-04-30T01:22:42.666Z,14.87
2019-04-30T01:25:13.449Z,11.43
2019-04-30T01:27:45.588Z,5.40
2019-04-30T01:30:13.381Z,7.90
2019-04-30T01:32:42.832Z,6.80
2019-04-30T01:35:12.348Z,5.70
2019-04-30T01:37:40.874Z,6.27
2019-04-30T01:40:13.590Z,6.13
2019-04-30T01:42:42.829Z,10.73
2019-04-30T01:45:09.929Z,11.97
2019-04-30T01:47:39.717Z,6.53
2019-04-30T01:50:09.227Z,24.93
2019-04-30T01:52:52.580Z,10.67
2019-04-30T01:55:24.031Z,9.13
2019-04-30T01:57:54.158Z,9.23
2019-04-30T02:00:26.786Z,7.17
2019-04-30T02:02:55.272Z,6.00
2019-04-30T02:05:23.748Z,10.97
2019-04-30T02:07:52.263Z,9.03
2019-04-30T02:10:20.734Z,7.70
2019-04-30T02:12:49.454Z,4.80
2019-04-30T02:15:19.274Z,12.33
2019-04-30T02:17:50.221Z,10.03
2019-04-30T02:20:18.609Z,6.60
2019-04-30T02:22:48.617Z,6.53
2019-04-30T02:25:17.170Z,6.63
2019-04-30T02:27:45.638Z,5.37
2019-04-30T02:30:14.158Z,9.97
2019-04-30T02:32:42.630Z,8.67
2019-04-30T02:35:12.840Z,11.77
2019-04-30T02:38:00.381Z,6.37
2019-04-30T02:40:30.169Z,11.90
2019-04-30T02:43:01.807Z,17.23
2019-04-30T02:45:30.106Z,7.60
2019-04-30T02:47:59.417Z,12.77
2019-04-30T02:50:29.403Z,13.10
2019-04-30T02:53:00.222Z,6.73
2019-04-30T02:55:44.585Z,7.90
2019-04-30T02:58:13.263Z,5.20
2019-04-30T03:00:41.755Z,10.13
2019-04-30T03:03:10.426Z,8.10
2019-04-30T03:05:39.292Z,7.50
2019-04-30T03:08:09.647Z,12.23
2019-04-30T03:10:40.168Z,7.23
2019-04-30T03:13:09.801Z,10.70
2019-04-30T03:15:39.450Z,11.00
2019-04-30T03:18:15.997Z,7.23
2019-04-30T03:20:51.812Z,5.83
2019-04-30T03:23:20.313Z,28.03
2019-04-30T03:25:50.124Z,7.37
2019-04-30T03:28:20.264Z,10.47
2019-04-30T03:30:51.873Z,12.30
2019-04-30T03:33:22.747Z,11.63
2019-04-30T03:35:54.380Z,9.40
2019-04-30T03:38:20.461Z,9.20
2019-04-30T03:40:50.284Z,8.77
2019-04-30T03:43:20.145Z,10.47
2019-04-30T03:45:49.958Z,8.27
2019-04-30T03:48:20.091Z,9.90
2019-04-30T03:50:55.654Z,7.63
2019-04-30T03:53:20.187Z,12.57
2019-04-30T03:55:50.512Z,8.90
2019-04-30T03:58:21.260Z,8.13
2019-04-30T04:00:51.141Z,13.97
2019-04-30T04:03:20.168Z,6.50
2019-04-30T04:05:50.422Z,5.63
2019-04-30T04:08:20.623Z,10.20
2019-04-30T04:10:53.720Z,7.27
2019-04-30T04:13:22.202Z,12.03
2019-04-30T04:15:50.732Z,13.07
2019-04-30T04:18:20.227Z,10.17
2019-04-30T04:20:52.031Z,9.33
2019-04-30T04:23:19.319Z,15.30
2019-04-30T04:25:49.864Z,12.97
2019-04-30T04:28:20.283Z,8.40
2019-04-30T04:30:50.524Z,6.60
2019-04-30T04:33:19.908Z,16.73
2019-04-30T04:35:49.878Z,8.60
2019-04-30T04:38:20.494Z,11.17
2019-04-30T04:40:50.225Z,14.73
2019-04-30T04:43:20.170Z,10.70
2019-04-30T04:45:49.769Z,6.63
2019-04-30T04:48:19.775Z,8.13
2019-04-30T04:50:50.213Z,8.47
2019-04-30T04:53:19.598Z,8.67
2019-04-30T04:55:49.978Z,9.47
2019-04-30T04:58:21.473Z,8.50
2019-04-30T05:00:49.440Z,9.10
2019-04-30T05:03:20.231Z,7.53
2019-04-30T05:05:49.997Z,12.30
2019-04-30T05:08:18.708Z,11.73
2019-04-30T05:10:47.181Z,9.13
2019-04-30T05:13:15.651Z,7.33
2019-04-30T05:15:44.182Z,14.10
2019-04-30T05:18:12.661Z,9.70
2019-04-30T05:20:41.714Z,8.80
2019-04-30T05:23:10.373Z,11.30
2019-04-30T05:25:39.091Z,7.33
2019-04-30T05:28:08.681Z,12.67
2019-04-30T05:30:39.226Z,9.57
2019-04-30T05:33:08.846Z,8.73
2019-04-30T05:35:38.839Z,11.10
2019-04-30T05:38:09.327Z,7.80
2019-04-30T05:40:39.808Z,13.20
2019-04-30T05:43:08.730Z,13.83
2019-04-30T05:45:39.004Z,9.20
2019-04-30T05:48:08.876Z,9.57
2019-04-30T05:50:39.040Z,10.27
2019-04-30T05:53:08.983Z,11.30
2019-04-30T05:55:39.386Z,7.37
2019-04-30T05:58:09.384Z,12.27
2019-04-30T06:00:40.795Z,11.80
2019-04-30T06:03:09.517Z,17.33
2019-04-30T06:05:39.371Z,11.03
2019-04-30T06:08:09.246Z,9.33
2019-04-30T06:10:39.689Z,9.50
2019-04-30T06:13:12.724Z,7.50
2019-04-30T06:15:42.858Z,10.77
2019-04-30T06:18:13.848Z,8.30
2019-04-30T06:20:41.766Z,6.80
2019-04-30T06:23:10.254Z,10.53
2019-04-30T06:25:55.760Z,9.40
2019-04-30T06:28:09.737Z,8.27
2019-04-30T06:30:39.649Z,8.43
2019-04-30T06:33:09.233Z,8.67
2019-04-30T06:35:39.211Z,20.80
2019-04-30T06:38:08.614Z,8.30
2019-04-30T06:40:39.062Z,6.73
2019-04-30T06:43:09.071Z,10.07
2019-04-30T06:45:38.815Z,6.13
2019-04-30T06:48:08.938Z,11.13
2019-04-30T06:50:39.320Z,10.80
2019-04-30T06:53:09.378Z,5.73
2019-04-30T06:55:39.163Z,8.60
2019-04-30T06:58:14.157Z,7.93
2019-04-30T07:00:40.088Z,15.43
2019-04-30T07:03:09.739Z,10.53
2019-04-30T07:05:39.055Z,6.93
2019-04-30T07:08:36.310Z,7.60
2019-04-30T07:11:13.498Z,4.70
2019-04-30T07:13:42.666Z,9.60
2019-04-30T07:16:11.146Z,10.40
2019-04-30T07:18:39.676Z,20.33
2019-04-30T07:21:08.733Z,8.00
2019-04-30T07:23:38.707Z,15.03
2019-04-30T07:26:09.102Z,7.73
2019-04-30T07:28:44.683Z,9.37
2019-04-30T07:31:14.022Z,12.73
2019-04-30T07:33:39.646Z,6.47
2019-04-30T07:36:09.670Z,22.13
2019-04-30T07:38:43.116Z,5.60
2019-04-30T07:41:09.577Z,10.23
2019-04-30T07:43:39.318Z,4.90
2019-04-30T07:46:09.322Z,5.93
2019-04-30T07:48:40.424Z,8.13
2019-04-30T07:51:10.512Z,19.03
2019-04-30T07:53:40.355Z,7.30
2019-04-30T07:56:24.127Z,17.33
2019-04-30T07:58:39.500Z,7.83
2019-04-30T08:01:10.360Z,8.40
2019-04-30T08:03:50.070Z,6.63
2019-04-30T08:06:22.142Z,11.00
2019-04-30T08:08:50.523Z,6.53
2019-04-30T08:11:25.755Z,8.73
2019-04-30T08:13:50.834Z,9.70
2019-04-30T08:16:19.737Z,11.33
2019-04-30T08:18:49.261Z,8.40
2019-04-30T08:21:19.019Z,8.07
2019-04-30T08:23:48.955Z,7.33
2019-04-30T08:26:18.727Z,10.63
2019-04-30T08:28:48.788Z,4.57
2019-04-30T08:31:19.373Z,7.67
2019-04-30T08:33:49.106Z,8.00
2019-04-30T08:36:19.559Z,11.47
2019-04-30T08:38:49.508Z,8.90
2019-04-30T08:41:19.311Z,11.67
2019-04-30T08:43:49.650Z,8.83
2019-04-30T08:46:19.066Z,25.17
2019-04-30T08:48:53.039Z,6.13
2019-04-30T08:51:19.124Z,10.50
2019-04-30T08:53:48.617Z,11.27
2019-04-30T08:56:21.634Z,7.77
2019-04-30T08:58:49.114Z,5.47
2019-04-30T09:01:19.611Z,9.63
2019-04-30T09:03:50.915Z,6.27
2019-04-30T09:06:19.837Z,5.23
2019-04-30T09:08:49.152Z,4.47
2019-04-30T09:11:24.730Z,3.67
2019-04-30T09:13:48.780Z,4.70
2019-04-30T09:16:19.443Z,3.83
2019-04-30T09:18:49.486Z,6.67
2019-04-30T09:21:18.654Z,7.87
2019-04-30T09:23:51.833Z,4.50
2019-04-30T09:26:18.723Z,4.00
2019-04-30T09:28:49.239Z,4.70
2019-04-30T09:31:19.644Z,9.17
2019-04-30T09:33:49.232Z,5.50
2019-04-30T09:36:20.605Z,8.73
2019-04-30T09:38:48.552Z,4.47
2019-04-30T09:41:19.103Z,10.40
2019-04-30T09:43:49.237Z,5.63
2019-04-30T09:46:24.547Z,18.03
2019-04-30T09:48:48.084Z,3.93
2019-04-30T09:51:16.949Z,11.90
2019-04-30T09:53:56.892Z,8.53
2019-04-30T09:56:19.364Z,5.30
2019-04-30T09:58:49.300Z,4.53
2019-04-30T10:01:17.789Z,8.20
2019-04-30T10:03:46.733Z,5.37
2019-04-30T10:06:15.377Z,11.43
2019-04-30T10:08:48.293Z,5.03
2019-04-30T10:11:15.837Z,6.73
2019-04-30T10:13:44.320Z,11.73
2019-04-30T10:16:29.692Z,4.33
2019-04-30T10:18:59.207Z,7.33
2019-04-30T10:21:29.040Z,4.30
2019-04-30T10:24:11.919Z,5.30
2019-04-30T10:26:27.971Z,12.00
2019-04-30T10:28:56.526Z,5.43
2019-04-30T10:31:25.040Z,4.00
2019-04-30T10:33:53.516Z,8.10
2019-04-30T10:36:22.071Z,4.50
2019-04-30T10:38:50.572Z,4.67
2019-04-30T10:41:19.070Z,6.77
2019-04-30T10:43:49.275Z,6.50
2019-04-30T10:46:18.031Z,9.43
2019-04-30T10:48:46.503Z,4.20
2019-04-30T10:51:14.996Z,9.33
2019-04-30T10:53:43.521Z,5.40
2019-04-30T10:56:12.357Z,4.10
2019-04-30T10:58:40.933Z,5.53
2019-04-30T11:01:09.675Z,4.10
2019-04-30T11:03:39.127Z,4.30
2019-04-30T11:06:08.702Z,6.47
2019-04-30T11:08:37.357Z,6.73
2019-04-30T11:11:05.970Z,4.80
2019-04-30T11:13:34.481Z,3.50
2019-04-30T11:16:12.582Z,6.43
2019-04-30T11:18:33.426Z,7.20
2019-04-30T11:21:02.427Z,9.47
2019-04-30T11:23:31.354Z,3.87
2019-04-30T11:26:00.979Z,6.20
2019-04-30T11:28:30.160Z,3.50
2019-04-30T11:31:18.597Z,3.60
2019-04-30T11:33:47.713Z,4.00
2019-04-30T11:36:16.440Z,3.37
2019-04-30T11:38:44.961Z,3.40
2019-04-30T11:41:13.521Z,3.13
2019-04-30T11:43:42.000Z,5.30
2019-04-30T11:46:28.845Z,11.23
2019-04-30T11:48:58.728Z,3.10
2019-04-30T11:51:29.359Z,3.23
2019-04-30T11:53:59.363Z,5.70
2019-04-30T11:56:28.039Z,4.03
2019-04-30T11:58:58.809Z,3.60
2019-04-30T12:01:28.851Z,3.13
2019-04-30T12:03:59.686Z,6.00
2019-04-30T12:06:28.501Z,3.07
2019-04-30T12:09:01.809Z,3.67
2019-04-30T12:11:34.719Z,3.60
2019-04-30T12:14:03.380Z,6.00
2019-04-30T12:16:33.685Z,4.40
2019-04-30T12:19:02.117Z,3.00
2019-04-30T12:21:30.604Z,2.90
2019-04-30T12:23:59.121Z,3.43
2019-04-30T12:26:28.902Z,2.93
2019-04-30T12:28:57.588Z,3.77
2019-04-30T12:31:26.103Z,3.37
2019-04-30T12:33:54.588Z,5.63
2019-04-30T12:36:23.069Z,3.10
2019-04-30T12:38:51.611Z,10.73
2019-04-30T12:41:20.092Z,3.00
2019-04-30T12:43:48.570Z,3.50
2019-04-30T12:46:19.032Z,4.20
2019-04-30T12:48:51.788Z,3.47
2019-04-30T12:51:21.948Z,11.13
2019-04-30T12:53:52.081Z,3.03
2019-04-30T12:56:31.236Z,2.90
2019-04-30T12:58:59.706Z,2.73
2019-04-30T13:01:32.135Z,6.20
2019-04-30T13:04:01.274Z,2.73
2019-04-30T13:06:29.733Z,2.90
2019-04-30T13:09:00.401Z,10.03
2019-04-30T13:11:30.614Z,3.47
2019-04-30T13:14:00.060Z,4.90
2019-04-30T13:16:29.336Z,2.20
2019-04-30T13:18:59.384Z,8.33
2019-04-30T13:21:28.463Z,3.10
2019-04-30T13:23:57.102Z,3.60
2019-04-30T13:26:25.680Z,2.30
2019-04-30T13:29:04.554Z,3.63
2019-04-30T13:31:33.059Z,3.17
2019-04-30T13:34:19.286Z,3.10
2019-04-30T13:36:49.352Z,2.70
2019-04-30T13:39:22.127Z,2.20
2019-04-30T13:41:52.321Z,5.03
2019-04-30T13:44:22.484Z,2.30
2019-04-30T13:46:50.968Z,3.27
2019-04-30T13:49:19.458Z,2.57
2019-04-30T13:51:48.053Z,5.20
2019-04-30T13:54:16.532Z,2.40
2019-04-30T13:56:45.014Z,10.00
2019-04-30T13:59:13.534Z,8.30
2019-04-30T14:01:42.013Z,3.17
2019-04-30T14:04:15.685Z,3.47
2019-04-30T14:06:52.149Z,2.80
2019-04-30T14:09:31.709Z,7.50
2019-04-30T14:12:00.590Z,6.50
2019-04-30T14:14:29.616Z,7.20
2019-04-30T14:17:01.212Z,5.03
2019-04-30T14:19:29.908Z,4.50
2019-04-30T14:21:59.001Z,3.47
2019-04-30T14:24:27.623Z,4.37
2019-04-30T14:26:56.372Z,14.03
2019-04-30T14:29:24.830Z,4.43
2019-04-30T14:31:53.334Z,9.60
2019-04-30T14:34:21.852Z,11.40
2019-04-30T14:36:50.340Z,4.40
2019-04-30T14:39:20.275Z,5.73
2019-04-30T14:41:51.570Z,5.70
2019-04-30T14:44:21.423Z,7.87
2019-04-30T14:46:58.471Z,5.20
2019-04-30T14:49:56.775Z,5.63
2019-04-30T14:52:14.741Z,6.47
2019-04-30T14:54:58.847Z,5.40
2019-04-30T14:57:41.123Z,7.30
2019-04-30T15:00:29.412Z,4.23
2019-04-30T15:03:16.331Z,5.43
2019-04-30T15:05:49.458Z,7.17
2019-04-30T15:08:16.117Z,3.97
2019-04-30T15:10:44.703Z,4.50
2019-04-30T15:13:13.196Z,4.40
2019-04-30T15:15:41.656Z,6.90
2019-04-30T15:18:10.173Z,11.00
2019-04-30T15:20:39.824Z,5.80
2019-04-30T15:23:25.297Z,9.20
2019-04-30T15:25:53.795Z,3.80
2019-04-30T15:28:22.267Z,4.00
2019-04-30T15:30:50.817Z,6.03
2019-04-30T15:33:23.737Z,6.80
2019-04-30T15:35:52.232Z,5.80
2019-04-30T15:38:22.496Z,6.37
2019-04-30T15:40:51.061Z,5.57
2019-04-30T15:43:19.627Z,12.33
2019-04-30T15:45:49.365Z,11.27
2019-04-30T15:48:19.642Z,7.00
2019-04-30T15:50:49.240Z,6.50
2019-04-30T15:53:19.356Z,11.10
2019-04-30T15:55:47.918Z,9.80
2019-04-30T15:58:18.065Z,7.57
2019-04-30T16:00:46.595Z,11.30
2019-04-30T16:03:16.720Z,8.07
2019-04-30T16:05:46.848Z,7.43
2019-04-30T16:08:29.082Z,10.70
2019-04-30T16:11:00.474Z,13.43
2019-04-30T16:13:36.414Z,8.37
2019-04-30T16:16:04.967Z,10.27
2019-04-30T16:18:35.100Z,27.40
2019-04-30T16:21:03.633Z,16.83
2019-04-30T16:23:32.110Z,11.87
2019-04-30T16:26:00.594Z,11.23
2019-04-30T16:28:29.571Z,12.90
2019-04-30T16:30:58.151Z,16.47
2019-04-30T16:33:26.626Z,16.10
2019-04-30T16:35:55.158Z,8.50
2019-04-30T16:38:23.630Z,15.30
2019-04-30T16:40:52.118Z,17.20
2019-04-30T16:43:20.646Z,16.33
2019-04-30T16:45:49.462Z,11.00
2019-04-30T16:48:19.433Z,12.13
2019-04-30T16:50:51.108Z,34.63
2019-04-30T16:53:18.744Z,9.50
2019-04-30T16:55:50.398Z,11.50
2019-04-30T16:58:19.687Z,11.37
2019-04-30T17:00:49.287Z,17.10
2019-04-30T17:03:34.745Z,10.37
2019-04-30T17:06:04.877Z,14.20
2019-04-30T17:08:35.007Z,9.53
2019-04-30T17:11:21.437Z,12.43
2019-04-30T17:13:57.274Z,19.40
2019-04-30T17:16:25.836Z,14.30
2019-04-30T17:18:54.316Z,9.83
2019-04-30T17:21:22.811Z,12.83
2019-04-30T17:23:51.353Z,15.03
2019-04-30T17:26:19.839Z,15.87
2019-04-30T17:28:49.883Z,11.20
2019-04-30T17:31:18.542Z,8.90
2019-04-30T17:33:47.484Z,15.43
2019-04-30T17:36:16.078Z,10.77
2019-04-30T17:38:44.615Z,9.83
2019-04-30T17:41:13.080Z,22.87
2019-04-30T17:43:41.877Z,13.20
2019-04-30T17:46:10.681Z,14.10
2019-04-30T17:48:39.449Z,11.87
2019-04-30T17:51:09.455Z,15.00
2019-04-30T17:53:39.818Z,16.53
2019-04-30T17:56:08.300Z,13.60
2019-04-30T17:58:36.782Z,11.57
2019-04-30T18:01:07.035Z,13.27
2019-04-30T18:03:35.568Z,11.53
2019-04-30T18:06:04.058Z,17.60
2019-04-30T18:08:32.607Z,17.43
2019-04-30T18:11:01.107Z,20.83
2019-04-30T18:13:29.852Z,13.40
2019-04-30T18:16:00.310Z,16.60
2019-04-30T18:18:32.957Z,21.60
2019-04-30T18:21:19.703Z,12.47
2019-04-30T18:23:50.173Z,18.73
2019-04-30T18:26:18.874Z,17.07
2019-04-30T18:28:47.413Z,14.23
2019-04-30T18:31:15.902Z,15.93
2019-04-30T18:33:44.385Z,16.47
2019-04-30T18:36:12.920Z,17.87
2019-04-30T18:38:41.417Z,14.73
2019-04-30T18:41:09.889Z,17.90
2019-04-30T18:43:40.347Z,12.60
2019-04-30T18:46:10.599Z,17.53
2019-04-30T18:48:39.343Z,20.63
2019-04-30T18:51:19.183Z,13.20
2019-04-30T18:53:39.765Z,18.17
2019-04-30T18:56:14.285Z,21.27
2019-04-30T18:58:42.202Z,18.63
2019-04-30T19:01:09.465Z,15.87
2019-04-30T19:03:39.095Z,48.37
2019-04-30T19:06:22.294Z,29.20
2019-04-30T19:08:58.459Z,27.83
2019-04-30T19:11:35.284Z,23.80
2019-04-30T19:14:20.411Z,21.87
2019-04-30T19:17:07.164Z,19.67
2019-04-30T19:19:37.299Z,22.43
2019-04-30T19:22:05.928Z,20.43
2019-04-30T19:24:34.544Z,28.33
2019-04-30T19:27:03.027Z,27.83
2019-04-30T19:29:33.581Z,19.07
2019-04-30T19:32:02.137Z,21.53
2019-04-30T19:34:31.694Z,17.53
2019-04-30T19:37:00.266Z,25.30
2019-04-30T19:39:29.316Z,25.50
2019-04-30T19:41:58.743Z,22.40
2019-04-30T19:44:29.375Z,21.40
2019-04-30T19:46:58.594Z,20.93
2019-04-30T19:49:27.176Z,22.80
2019-04-30T19:52:06.189Z,19.73
2019-04-30T19:54:25.913Z,24.10
2019-04-30T19:56:54.401Z,19.30
2019-04-30T19:59:22.883Z,31.07
2019-04-30T20:01:51.414Z,24.43
2019-04-30T20:04:32.157Z,18.60
2019-04-30T20:06:50.132Z,22.40
2019-04-30T20:09:19.381Z,18.27
2019-04-30T20:11:49.281Z,23.00
2019-04-30T20:14:18.709Z,23.30
2019-04-30T20:16:48.662Z,22.10
2019-04-30T20:19:17.662Z,18.10
2019-04-30T20:21:53.060Z,17.17
2019-04-30T20:24:16.557Z,21.23
2019-04-30T20:26:45.042Z,14.47
2019-04-30T20:29:13.541Z,28.43
2019-04-30T20:31:42.094Z,14.43
2019-04-30T20:34:10.574Z,23.00
2019-04-30T20:36:39.052Z,27.47
2019-04-30T20:39:09.607Z,17.80
2019-04-30T20:41:39.581Z,22.50
2019-04-30T20:44:08.708Z,16.40
2019-04-30T20:46:39.326Z,22.73
2019-04-30T20:49:09.181Z,29.17
2019-04-30T20:51:40.155Z,19.20
2019-04-30T20:54:09.095Z,17.40
2019-04-30T20:56:38.991Z,19.63
2019-04-30T20:59:10.496Z,13.20
2019-04-30T21:01:39.304Z,33.93
2019-04-30T21:04:07.896Z,17.30
2019-04-30T21:06:36.397Z,28.50
2019-04-30T21:09:06.158Z,18.23
2019-04-30T21:11:34.713Z,23.30
2019-04-30T21:14:03.342Z,28.10
2019-04-30T21:16:32.066Z,18.57
2019-04-30T21:19:00.564Z,21.20
2019-04-30T21:21:31.539Z,15.73
2019-04-30T21:24:00.142Z,20.63
2019-04-30T21:26:28.700Z,20.40
2019-04-30T21:29:10.430Z,24.30
2019-04-30T21:31:29.190Z,25.43
2019-04-30T21:34:00.604Z,21.10
2019-04-30T21:36:29.186Z,27.43
2019-04-30T21:38:59.054Z,25.73
2019-04-30T21:41:29.740Z,27.93
2019-04-30T21:43:57.976Z,24.30
2019-04-30T21:46:26.498Z,27.90
2019-04-30T21:48:54.977Z,23.17
2019-04-30T21:51:23.475Z,28.20
2019-04-30T21:53:52.013Z,25.07
2019-04-30T21:56:20.493Z,30.40
2019-04-30T21:58:48.988Z,26.90
2019-04-30T22:01:19.223Z,28.60
2019-04-30T22:03:48.267Z,26.33
2019-04-30T22:06:16.895Z,33.67
2019-04-30T22:08:45.481Z,28.87
2019-04-30T22:11:13.968Z,36.80
2019-04-30T22:13:43.265Z,31.87
2019-04-30T22:16:11.953Z,33.87
2019-04-30T22:18:40.517Z,42.03
2019-04-30T22:21:09.021Z,34.17
2019-04-30T22:23:38.625Z,34.10
2019-04-30T22:26:07.118Z,34.23
2019-04-30T22:28:35.601Z,38.27
2019-04-30T22:31:04.186Z,30.63
2019-04-30T22:33:32.682Z,30.97
2019-04-30T22:36:02.793Z,31.33
2019-04-30T22:38:44.441Z,32.27
2019-04-30T22:41:12.941Z,34.00
2019-04-30T22:43:41.415Z,28.13
2019-04-30T22:46:14.013Z,34.57
2019-04-30T22:48:42.493Z,32.20
2019-04-30T22:51:10.982Z,33.03
2019-04-30T22:53:39.513Z,34.17
2019-04-30T22:56:08.034Z,37.40
2019-04-30T22:58:36.512Z,40.20
2019-04-30T23:01:21.761Z,27.37
2019-04-30T23:03:51.882Z,39.53
2019-04-30T23:06:20.366Z,30.73
2019-04-30T23:08:48.917Z,30.70
2019-04-30T23:11:17.473Z,29.50
2019-04-30T23:13:45.951Z,33.37
2019-04-30T23:16:14.844Z,45.60
2019-04-30T23:18:43.328Z,30.43
2019-04-30T23:21:11.822Z,35.93
2019-04-30T23:23:40.358Z,28.17
2019-04-30T23:26:09.949Z,38.60
2019-04-30T23:28:38.435Z,34.93
2019-04-30T23:31:06.950Z,34.50
2019-04-30T23:33:35.428Z,33.63
2019-04-30T23:36:04.000Z,32.43
2019-04-30T23:38:32.523Z,37.70
2019-04-30T23:41:00.999Z,34.37
2019-04-30T23:43:29.484Z,45.33
2019-04-30T23:45:58.006Z,43.50
2019-04-30T23:48:26.492Z,35.93
2019-04-30T23:50:54.970Z,29.30
2019-04-30T23:53:23.512Z,34.20
2019-04-30T23:55:51.990Z,41.53
2019-04-30T23:58:20.513Z,41.53
